OAL052 LGAV-LGKO
Flight info
| Callsign | OAL052 |
|---|---|
| Flight time | 0h 33m |
| Altitude | 25000 |
| Route | KEA UL995 KOPAR |
| Aircraft | A320/M-L/C |
Departure
| Time | 2026-05-07 19:33 |
|---|---|
| Airport | Athens Eleftherios Venizelos International Airport (LGAV) |
Arrival
| Time | 2026-05-07 20:06 |
|---|---|
| Airport | Kos International Airport "Ippokratis" (LGKO) |
| Time | Latitude | Longitude | Altitude | Speed | Heading |
|---|---|---|---|---|---|
| 2026-05-07 19:16 | 37.94022 | 23.95289 | 288 ft | 0 kts | 38° |
| 2026-05-07 19:21 | 37.94020 | 23.95287 | 288 ft | 1 kts | 37° |
| 2026-05-07 19:21 | 37.94008 | 23.95275 | 288 ft | 2 kts | 38° |
| 2026-05-07 19:22 | 37.93995 | 23.95263 | 288 ft | 2 kts | 37° |
| 2026-05-07 19:22 | 37.93985 | 23.95249 | 288 ft | 2 kts | 61° |
| 2026-05-07 19:22 | 37.93979 | 23.95232 | 288 ft | 2 kts | 79° |
| 2026-05-07 19:22 | 37.93978 | 23.95213 | 288 ft | 2 kts | 98° |
| 2026-05-07 19:23 | 37.93982 | 23.95195 | 288 ft | 2 kts | 117° |
| 2026-05-07 19:23 | 37.93986 | 23.95187 | 288 ft | 1 kts | 128° |
| 2026-05-07 19:23 | 37.93989 | 23.95182 | 288 ft | 0 kts | 127° |
| 2026-05-07 19:25 | 37.93988 | 23.95184 | 288 ft | 1 kts | 127° |
| 2026-05-07 19:25 | 37.93948 | 23.95251 | 288 ft | 10 kts | 127° |
| 2026-05-07 19:25 | 37.93900 | 23.95332 | 288 ft | 11 kts | 127° |
| 2026-05-07 19:25 | 37.93851 | 23.95421 | 288 ft | 12 kts | 108° |
| 2026-05-07 19:26 | 37.93895 | 23.95513 | 288 ft | 13 kts | 36° |
| 2026-05-07 19:26 | 37.93974 | 23.95588 | 288 ft | 14 kts | 37° |
| 2026-05-07 19:26 | 37.94058 | 23.95666 | 288 ft | 15 kts | 36° |
| 2026-05-07 19:26 | 37.94144 | 23.95750 | 288 ft | 15 kts | 38° |
| 2026-05-07 19:27 | 37.94233 | 23.95837 | 288 ft | 16 kts | 37° |
| 2026-05-07 19:27 | 37.94327 | 23.95925 | 288 ft | 16 kts | 36° |
| 2026-05-07 19:27 | 37.94423 | 23.96014 | 287 ft | 17 kts | 37° |
| 2026-05-07 19:27 | 37.94520 | 23.96110 | 287 ft | 17 kts | 37° |
| 2026-05-07 19:28 | 37.94620 | 23.96204 | 288 ft | 18 kts | 37° |
| 2026-05-07 19:28 | 37.94720 | 23.96299 | 287 ft | 18 kts | 37° |
| 2026-05-07 19:28 | 37.94823 | 23.96395 | 287 ft | 18 kts | 37° |
| 2026-05-07 19:28 | 37.94927 | 23.96495 | 287 ft | 18 kts | 37° |
| 2026-05-07 19:29 | 37.95030 | 23.96595 | 287 ft | 18 kts | 37° |
| 2026-05-07 19:29 | 37.95135 | 23.96695 | 287 ft | 18 kts | 37° |
| 2026-05-07 19:29 | 37.95240 | 23.96795 | 287 ft | 19 kts | 37° |
| 2026-05-07 19:29 | 37.95300 | 23.96865 | 287 ft | 9 kts | 75° |
| 2026-05-07 19:30 | 37.95286 | 23.96919 | 287 ft | 7 kts | 126° |
| 2026-05-07 19:30 | 37.95279 | 23.96930 | 287 ft | 0 kts | 127° |
| 2026-05-07 19:30 | 37.95277 | 23.96933 | 287 ft | 1 kts | 127° |
| 2026-05-07 19:30 | 37.95268 | 23.96949 | 287 ft | 3 kts | 127° |
| 2026-05-07 19:31 | 37.95251 | 23.96978 | 287 ft | 4 kts | 127° |
| 2026-05-07 19:31 | 37.95225 | 23.97014 | 287 ft | 6 kts | 140° |
| 2026-05-07 19:31 | 37.95182 | 23.97018 | 287 ft | 2 kts | 214° |
| 2026-05-07 19:31 | 37.95180 | 23.97015 | 287 ft | 0 kts | 217° |
| 2026-05-07 19:32 | 37.95179 | 23.97014 | 287 ft | 0 kts | 217° |
| 2026-05-07 19:32 | 37.95033 | 23.96875 | 287 ft | 59 kts | 217° |
| 2026-05-07 19:33 | 37.94525 | 23.96393 | 288 ft | 120 kts | 218° |
| 2026-05-07 19:33 | 37.93718 | 23.95626 | 292 ft | 168 kts | 218° |
| 2026-05-07 19:33 | 37.92759 | 23.94729 | 827 ft | 169 kts | 217° |
| 2026-05-07 19:33 | 37.91843 | 23.93869 | 1514 ft | 166 kts | 217° |
| 2026-05-07 19:34 | 37.90891 | 23.93099 | 2197 ft | 163 kts | 210° |
| 2026-05-07 19:34 | 37.89909 | 23.92401 | 2731 ft | 163 kts | 207° |
| 2026-05-07 19:34 | 37.88915 | 23.91747 | 3266 ft | 163 kts | 206° |
| 2026-05-07 19:34 | 37.87915 | 23.91072 | 3805 ft | 163 kts | 207° |
| 2026-05-07 19:35 | 37.86923 | 23.90441 | 4333 ft | 162 kts | 193° |
| 2026-05-07 19:35 | 37.85829 | 23.90576 | 4782 ft | 165 kts | 153° |
| 2026-05-07 19:35 | 37.84962 | 23.91556 | 5177 ft | 177 kts | 129° |
| 2026-05-07 19:35 | 37.84197 | 23.92868 | 5500 ft | 194 kts | 128° |
| 2026-05-07 19:36 | 37.83456 | 23.94374 | 5829 ft | 212 kts | 121° |
| 2026-05-07 19:36 | 37.82721 | 23.96123 | 6115 ft | 235 kts | 119° |
| 2026-05-07 19:36 | 37.81937 | 23.98021 | 6537 ft | 253 kts | 118° |
| 2026-05-07 19:36 | 37.81082 | 24.00086 | 6976 ft | 271 kts | 119° |
| 2026-05-07 19:37 | 37.80179 | 24.02238 | 7586 ft | 282 kts | 119° |
| 2026-05-07 19:37 | 37.79236 | 24.04476 | 8333 ft | 287 kts | 119° |
| 2026-05-07 19:37 | 37.78246 | 24.06809 | 9069 ft | 293 kts | 119° |
| 2026-05-07 19:37 | 37.77250 | 24.09151 | 9756 ft | 299 kts | 119° |
| 2026-05-07 19:38 | 37.76215 | 24.11578 | 10407 ft | 306 kts | 119° |
| 2026-05-07 19:38 | 37.75136 | 24.14103 | 10782 ft | 323 kts | 119° |
| 2026-05-07 19:38 | 37.73989 | 24.16778 | 11105 ft | 341 kts | 119° |
| 2026-05-07 19:38 | 37.72780 | 24.19597 | 11408 ft | 358 kts | 119° |
| 2026-05-07 19:39 | 37.71527 | 24.22520 | 11821 ft | 370 kts | 119° |
| 2026-05-07 19:39 | 37.70232 | 24.25540 | 12442 ft | 374 kts | 119° |
| 2026-05-07 19:39 | 37.68921 | 24.28597 | 13088 ft | 378 kts | 119° |
| 2026-05-07 19:39 | 37.67616 | 24.31632 | 13684 ft | 382 kts | 119° |
| 2026-05-07 19:40 | 37.66292 | 24.34708 | 14212 ft | 387 kts | 119° |
| 2026-05-07 19:40 | 37.64940 | 24.37840 | 14779 ft | 391 kts | 119° |
| 2026-05-07 19:40 | 37.63583 | 24.40985 | 15365 ft | 394 kts | 118° |
| 2026-05-07 19:40 | 37.62235 | 24.44111 | 15926 ft | 397 kts | 119° |
| 2026-05-07 19:41 | 37.60854 | 24.47304 | 16506 ft | 399 kts | 119° |
| 2026-05-07 19:41 | 37.59455 | 24.50537 | 17038 ft | 402 kts | 119° |
| 2026-05-07 19:41 | 37.58038 | 24.53811 | 17525 ft | 406 kts | 118° |
| 2026-05-07 19:41 | 37.56645 | 24.57025 | 18033 ft | 409 kts | 118° |
| 2026-05-07 19:42 | 37.55218 | 24.60315 | 18550 ft | 411 kts | 118° |
| 2026-05-07 19:42 | 37.53786 | 24.63610 | 19054 ft | 414 kts | 118° |
| 2026-05-07 19:42 | 37.52370 | 24.66874 | 19496 ft | 418 kts | 119° |
| 2026-05-07 19:42 | 37.50967 | 24.70096 | 19933 ft | 421 kts | 119° |
| 2026-05-07 19:43 | 37.49538 | 24.73376 | 20339 ft | 425 kts | 119° |
| 2026-05-07 19:43 | 37.48112 | 24.76645 | 20792 ft | 427 kts | 119° |
| 2026-05-07 19:43 | 37.46659 | 24.79974 | 21257 ft | 428 kts | 119° |
| 2026-05-07 19:43 | 37.45213 | 24.83280 | 21664 ft | 431 kts | 119° |
| 2026-05-07 19:44 | 37.43720 | 24.86695 | 22037 ft | 435 kts | 119° |
| 2026-05-07 19:44 | 37.42212 | 24.90142 | 22507 ft | 436 kts | 119° |
| 2026-05-07 19:44 | 37.40726 | 24.93532 | 23071 ft | 434 kts | 119° |
| 2026-05-07 19:44 | 37.39243 | 24.96908 | 23623 ft | 433 kts | 118° |
| 2026-05-07 19:45 | 37.37744 | 25.00355 | 24025 ft | 435 kts | 117° |
| 2026-05-07 19:45 | 37.36403 | 25.03868 | 24378 ft | 438 kts | 112° |
| 2026-05-07 19:45 | 37.35273 | 25.07465 | 24751 ft | 440 kts | 108° |
| 2026-05-07 19:45 | 37.34256 | 25.11229 | 25087 ft | 442 kts | 107° |
| 2026-05-07 19:46 | 37.33246 | 25.15069 | 25131 ft | 444 kts | 106° |
| 2026-05-07 19:46 | 37.32246 | 25.18878 | 25133 ft | 444 kts | 107° |
| 2026-05-07 19:46 | 37.31221 | 25.22718 | 25131 ft | 445 kts | 108° |
| 2026-05-07 19:46 | 37.30044 | 25.26450 | 25130 ft | 445 kts | 111° |
| 2026-05-07 19:47 | 37.28777 | 25.30143 | 25132 ft | 445 kts | 112° |
| 2026-05-07 19:47 | 37.27499 | 25.33831 | 25132 ft | 444 kts | 112° |
| 2026-05-07 19:47 | 37.26230 | 25.37526 | 25135 ft | 444 kts | 111° |
| 2026-05-07 19:47 | 37.24971 | 25.41226 | 25136 ft | 444 kts | 111° |
| 2026-05-07 19:48 | 37.23720 | 25.44919 | 25136 ft | 444 kts | 111° |
| 2026-05-07 19:48 | 37.22475 | 25.48602 | 25136 ft | 444 kts | 111° |
| 2026-05-07 19:48 | 37.21228 | 25.52303 | 25138 ft | 445 kts | 111° |
| 2026-05-07 19:48 | 37.19975 | 25.56019 | 25139 ft | 444 kts | 111° |
| 2026-05-07 19:49 | 37.18723 | 25.59725 | 25121 ft | 445 kts | 111° |
| 2026-05-07 19:49 | 37.17451 | 25.63490 | 24639 ft | 444 kts | 111° |
| 2026-05-07 19:49 | 37.16217 | 25.67137 | 24082 ft | 441 kts | 112° |
| 2026-05-07 19:49 | 37.14999 | 25.70733 | 23474 ft | 440 kts | 112° |
| 2026-05-07 19:50 | 37.13755 | 25.74400 | 22873 ft | 437 kts | 112° |
| 2026-05-07 19:50 | 37.12532 | 25.78007 | 22380 ft | 432 kts | 112° |
| 2026-05-07 19:50 | 37.11321 | 25.81564 | 21949 ft | 428 kts | 112° |
| 2026-05-07 19:50 | 37.10102 | 25.85141 | 21498 ft | 427 kts | 112° |
| 2026-05-07 19:51 | 37.08868 | 25.88763 | 20990 ft | 426 kts | 112° |
| 2026-05-07 19:51 | 37.07670 | 25.92267 | 20521 ft | 422 kts | 112° |
| 2026-05-07 19:51 | 37.06474 | 25.95766 | 20003 ft | 420 kts | 112° |
| 2026-05-07 19:51 | 37.05276 | 25.99275 | 19469 ft | 418 kts | 112° |
| 2026-05-07 19:52 | 37.04082 | 26.02760 | 18935 ft | 417 kts | 112° |
| 2026-05-07 19:52 | 37.02897 | 26.06217 | 18398 ft | 415 kts | 112° |
| 2026-05-07 19:52 | 37.01718 | 26.09655 | 17896 ft | 412 kts | 112° |
| 2026-05-07 19:52 | 37.00550 | 26.13053 | 17427 ft | 409 kts | 112° |
| 2026-05-07 19:53 | 36.99378 | 26.16460 | 16912 ft | 407 kts | 112° |
| 2026-05-07 19:53 | 36.98229 | 26.19797 | 16379 ft | 406 kts | 112° |
| 2026-05-07 19:53 | 36.97073 | 26.23148 | 15883 ft | 403 kts | 112° |
| 2026-05-07 19:53 | 36.95903 | 26.26536 | 15417 ft | 399 kts | 112° |
| 2026-05-07 19:54 | 36.94755 | 26.29859 | 14885 ft | 398 kts | 112° |
| 2026-05-07 19:54 | 36.93631 | 26.33105 | 14401 ft | 395 kts | 112° |
| 2026-05-07 19:54 | 36.92500 | 26.36375 | 14066 ft | 387 kts | 112° |
| 2026-05-07 19:54 | 36.91401 | 26.39544 | 13867 ft | 375 kts | 112° |
| 2026-05-07 19:55 | 36.90340 | 26.42597 | 13653 ft | 366 kts | 112° |
| 2026-05-07 19:55 | 36.89331 | 26.45506 | 13176 ft | 359 kts | 112° |
| 2026-05-07 19:55 | 36.88313 | 26.48428 | 12464 ft | 356 kts | 112° |
| 2026-05-07 19:55 | 36.87295 | 26.51355 | 11786 ft | 352 kts | 112° |
| 2026-05-07 19:56 | 36.86288 | 26.54244 | 11122 ft | 347 kts | 112° |
| 2026-05-07 19:56 | 36.85310 | 26.57043 | 10455 ft | 342 kts | 112° |
| 2026-05-07 19:56 | 36.84331 | 26.59850 | 9782 ft | 338 kts | 111° |
| 2026-05-07 19:56 | 36.83357 | 26.62640 | 9116 ft | 333 kts | 112° |
| 2026-05-07 19:57 | 36.82420 | 26.65319 | 8739 ft | 318 kts | 112° |
| 2026-05-07 19:57 | 36.81534 | 26.67849 | 8468 ft | 303 kts | 112° |
| 2026-05-07 19:57 | 36.80674 | 26.70303 | 8138 ft | 292 kts | 112° |
| 2026-05-07 19:57 | 36.79834 | 26.72702 | 7647 ft | 287 kts | 112° |
| 2026-05-07 19:58 | 36.79004 | 26.75066 | 7136 ft | 284 kts | 112° |
| 2026-05-07 19:58 | 36.78198 | 26.77367 | 6654 ft | 279 kts | 112° |
| 2026-05-07 19:58 | 36.77381 | 26.79693 | 6158 ft | 275 kts | 112° |
| 2026-05-07 19:58 | 36.76588 | 26.81952 | 5676 ft | 274 kts | 112° |
| 2026-05-07 19:59 | 36.75797 | 26.84199 | 5330 ft | 272 kts | 112° |
| 2026-05-07 19:59 | 36.75013 | 26.86422 | 5005 ft | 270 kts | 112° |
| 2026-05-07 19:59 | 36.74217 | 26.88684 | 4666 ft | 269 kts | 112° |
| 2026-05-07 19:59 | 36.73452 | 26.90852 | 4248 ft | 262 kts | 112° |
| 2026-05-07 20:00 | 36.72710 | 26.92947 | 3952 ft | 249 kts | 112° |
| 2026-05-07 20:00 | 36.72003 | 26.94953 | 3635 ft | 242 kts | 112° |
| 2026-05-07 20:00 | 36.71308 | 26.96920 | 3474 ft | 234 kts | 112° |
| 2026-05-07 20:00 | 36.70631 | 26.98836 | 3339 ft | 227 kts | 112° |
| 2026-05-07 20:01 | 36.69971 | 27.00701 | 3208 ft | 221 kts | 112° |
| 2026-05-07 20:01 | 36.69334 | 27.02503 | 3081 ft | 215 kts | 112° |
| 2026-05-07 20:01 | 36.68716 | 27.04242 | 2991 ft | 207 kts | 112° |
| 2026-05-07 20:01 | 36.68131 | 27.05903 | 3056 ft | 196 kts | 110° |
| 2026-05-07 20:02 | 36.67802 | 27.07520 | 3105 ft | 176 kts | 93° |
| 2026-05-07 20:02 | 36.67878 | 27.09004 | 2907 ft | 159 kts | 75° |
| 2026-05-07 20:02 | 36.68256 | 27.10299 | 2677 ft | 145 kts | 67° |
| 2026-05-07 20:02 | 36.68592 | 27.11492 | 2361 ft | 141 kts | 71° |
| 2026-05-07 20:03 | 36.68883 | 27.12720 | 2041 ft | 141 kts | 71° |
| 2026-05-07 20:03 | 36.69216 | 27.13928 | 1791 ft | 142 kts | 61° |
| 2026-05-07 20:03 | 36.69880 | 27.14834 | 1515 ft | 139 kts | 29° |
| 2026-05-07 20:03 | 36.70814 | 27.15224 | 1344 ft | 138 kts | 4° |
| 2026-05-07 20:04 | 36.71790 | 27.15048 | 1282 ft | 137 kts | 334° |
| 2026-05-07 20:04 | 36.72643 | 27.14430 | 1287 ft | 137 kts | 328° |
| 2026-05-07 20:04 | 36.73484 | 27.13777 | 1301 ft | 137 kts | 327° |
| 2026-05-07 20:04 | 36.74349 | 27.13114 | 1316 ft | 137 kts | 327° |
| 2026-05-07 20:05 | 36.75175 | 27.12451 | 1288 ft | 137 kts | 326° |
| 2026-05-07 20:05 | 36.76012 | 27.11782 | 1138 ft | 137 kts | 326° |
| 2026-05-07 20:05 | 36.76862 | 27.11127 | 895 ft | 137 kts | 328° |
| 2026-05-07 20:05 | 36.77710 | 27.10478 | 659 ft | 136 kts | 326° |
| 2026-05-07 20:06 | 36.78530 | 27.09837 | 463 ft | 136 kts | 326° |
| 2026-05-07 20:06 | 36.79348 | 27.09197 | 418 ft | 116 kts | 327° |
| 2026-05-07 20:06 | 36.79893 | 27.08772 | 419 ft | 53 kts | 328° |
| 2026-05-07 20:06 | 36.80121 | 27.08593 | 419 ft | 17 kts | 328° |
| 2026-05-07 20:07 | 36.80214 | 27.08522 | 419 ft | 15 kts | 329° |
| 2026-05-07 20:07 | 36.80306 | 27.08463 | 419 ft | 5 kts | 344° |
| 2026-05-07 20:07 | 36.80349 | 27.08483 | 419 ft | 7 kts | 55° |
| 2026-05-07 20:07 | 36.80349 | 27.08544 | 419 ft | 0 kts | 101° |